Time;durP1;ratioP1;P1;durP2;ratioP2;P2;SDS_P1;SDS_P2;PMS_P1;PMS_P2;Temp;Humidity;BMP_temperature;BMP_pressure;BME280_temperature;BME280_humidity;BME280_pressure;Samples;Min_cycle;Max_cycle;Signal;HPM_P1;HPM_P2
2023/06/23 00:01:01;;;;;;;15.35;8.23;;;27.90;54.60;;;;;;5032085;28;20419;-79
2023/06/23 00:03:27;;;;;;;15.20;8.30;;;27.90;54.40;;;;;;5032093;28;20104;-78
2023/06/23 00:05:53;;;;;;;18.65;8.55;;;27.90;53.90;;;;;;5032228;28;20041;-79
2023/06/23 00:08:19;;;;;;;13.18;8.07;;;27.90;54.10;;;;;;5032008;28;20132;-80
2023/06/23 00:10:45;;;;;;;15.82;8.20;;;27.80;53.80;;;;;;5032915;28;20072;-81
2023/06/23 00:13:11;;;;;;;14.82;7.72;;;27.80;53.60;;;;;;5032586;28;20403;-80
2023/06/23 00:15:37;;;;;;;15.50;7.57;;;27.70;54.00;;;;;;5031958;28;20045;-79
2023/06/23 00:18:02;;;;;;;17.08;7.32;;;27.70;53.70;;;;;;5032037;28;20390;-80
2023/06/23 00:20:28;;;;;;;14.57;7.22;;;27.80;53.60;;;;;;5032114;28;20060;-81
2023/06/23 00:22:55;;;;;;;13.90;6.93;;;27.70;53.40;;;;;;5031970;28;20041;-80
2023/06/23 00:25:21;;;;;;;17.63;8.32;;;27.80;53.50;;;;;;5031948;28;20033;-79
2023/06/23 00:27:46;;;;;;;11.05;6.72;;;27.80;53.30;;;;;;5032207;28;20116;-79
2023/06/23 00:30:13;;;;;;;11.80;6.70;;;27.70;53.00;;;;;;5031836;28;20037;-81
2023/06/23 00:32:40;;;;;;;13.82;7.75;;;27.60;53.00;;;;;;5031764;28;20037;-78
2023/06/23 00:35:07;;;;;;;10.68;6.53;;;27.70;53.00;;;;;;5032007;28;20037;-81
2023/06/23 00:37:32;;;;;;;10.00;6.45;;;27.70;52.70;;;;;;5032054;28;20114;-81
2023/06/23 00:39:59;;;;;;;11.70;6.70;;;27.70;52.70;;;;;;5032080;28;20108;-80
2023/06/23 00:42:25;;;;;;;10.63;6.55;;;27.70;52.60;;;;;;5032138;28;20029;-80
2023/06/23 00:44:51;;;;;;;13.13;6.82;;;27.70;52.50;;;;;;5031643;28;20079;-80
2023/06/23 00:47:17;;;;;;;12.85;7.18;;;27.80;52.40;;;;;;5018947;28;20030;-79
2023/06/23 00:49:45;;;;;;;12.10;7.43;;;27.80;52.30;;;;;;5011959;28;20050;-81
2023/06/23 00:52:11;;;;;;;10.80;6.40;;;27.80;52.20;;;;;;5011955;28;20026;-81
2023/06/23 00:54:37;;;;;;;9.32;6.40;;;27.80;52.20;;;;;;5012627;28;20128;-80
2023/06/23 00:57:03;;;;;;;11.63;6.43;;;27.60;52.00;;;;;;5017626;28;20037;-80
2023/06/23 00:59:30;;;;;;;11.15;6.30;;;27.60;52.10;;;;;;5015076;28;20038;-81
2023/06/23 01:02:00;;;;;;;8.52;5.88;;;27.50;51.90;;;;;;5012069;28;20181;-80
2023/06/23 01:04:34;;;;;;;9.88;6.70;;;27.60;52.00;;;;;;5013960;28;20045;-81
2023/06/23 01:07:14;;;;;;;11.25;6.20;;;27.50;51.80;;;;;;5011895;28;20045;-81
2023/06/23 01:09:49;;;;;;;13.18;6.65;;;27.60;52.10;;;;;;5011746;28;20395;-80
2023/06/23 01:12:30;;;;;;;11.57;6.25;;;27.60;52.00;;;;;;5012817;28;20443;-80
2023/06/23 01:15:04;;;;;;;12.82;6.47;;;27.60;52.00;;;;;;5013266;28;20399;-81
2023/06/23 01:17:41;;;;;;;9.65;6.25;;;27.70;52.10;;;;;;5014002;28;20472;-79
2023/06/23 01:20:21;;;;;;;11.68;6.47;;;27.70;52.10;;;;;;5013537;28;20038;-80
2023/06/23 01:23:08;;;;;;;9.02;5.90;;;27.80;52.00;;;;;;5013239;28;20030;-79
2023/06/23 01:25:55;;;;;;;10.93;6.50;;;27.80;51.60;;;;;;5012894;28;20567;-81
2023/06/23 01:29:00;;;;;;;12.50;6.45;;;27.80;51.80;;;;;;4994927;28;20570;-81
2023/06/23 01:31:36;;;;;;;11.32;6.32;;;27.80;51.70;;;;;;5011843;28;20096;-80
2023/06/23 01:34:06;;;;;;;15.90;6.15;;;27.80;51.80;;;;;;5011700;28;20030;-79
2023/06/23 01:36:42;;;;;;;10.93;6.15;;;27.80;51.40;;;;;;5011683;28;20030;-81
2023/06/23 01:39:12;;;;;;;12.30;6.30;;;27.80;50.80;;;;;;5011738;28;20092;-80
2023/06/23 01:41:46;;;;;;;14.55;5.80;;;27.80;50.70;;;;;;5011690;28;20161;-78
2023/06/23 01:44:14;;;;;;;9.27;5.40;;;27.80;50.50;;;;;;5011666;28;20042;-81
2023/06/23 01:46:46;;;;;;;18.35;6.28;;;27.90;50.20;;;;;;5011606;28;20041;-81
2023/06/23 01:49:17;;;;;;;15.20;5.47;;;27.80;50.10;;;;;;4994100;28;20415;-81
2023/06/23 01:51:50;;;;;;;10.30;5.13;;;27.80;50.10;;;;;;4994038;28;20428;-80
2023/06/23 01:54:18;;;;;;;9.50;5.25;;;27.80;49.70;;;;;;5011511;28;20448;-82
2023/06/23 01:56:45;;;;;;;10.43;5.30;;;27.80;49.60;;;;;;5011313;28;20085;-79
2023/06/23 01:59:13;;;;;;;9.48;5.53;;;27.80;49.30;;;;;;5012104;28;20045;-80
2023/06/23 02:01:42;;;;;;;10.27;5.70;;;27.80;49.00;;;;;;5014980;28;20065;-79
2023/06/23 02:04:09;;;;;;;10.60;6.03;;;27.80;48.80;;;;;;5014753;28;20070;-79
2023/06/23 02:06:37;;;;;;;10.00;5.70;;;27.70;49.10;;;;;;4997004;28;20428;-80
2023/06/23 02:09:07;;;;;;;9.52;6.10;;;27.70;49.60;;;;;;5014770;28;20124;-80
2023/06/23 02:11:34;;;;;;;13.50;6.07;;;27.60;50.00;;;;;;5014669;28;20034;-80
2023/06/23 02:14:01;;;;;;;10.10;6.07;;;27.60;50.60;;;;;;4996883;28;20494;-80
2023/06/23 02:16:30;;;;;;;14.48;6.22;;;27.60;51.10;;;;;;4996767;28;20108;-79
2023/06/23 02:18:57;;;;;;;11.57;6.40;;;27.50;51.40;;;;;;5014711;28;20148;-81
2023/06/23 02:21:24;;;;;;;11.25;6.07;;;27.50;51.80;;;;;;5014749;28;20062;-82
2023/06/23 02:23:51;;;;;;;14.48;6.35;;;27.50;52.00;;;;;;5014222;28;20056;-81
2023/06/23 02:26:18;;;;;;;11.60;6.78;;;27.40;52.30;;;;;;5014382;28;20030;-80
2023/06/23 02:28:49;;;;;;;16.45;7.40;;;27.40;52.50;;;;;;5014387;28;20442;-80
2023/06/23 02:31:22;;;;;;;14.63;6.47;;;27.40;52.70;;;;;;5014059;28;20491;-81
2023/06/23 02:33:48;;;;;;;11.35;6.10;;;27.30;52.90;;;;;;5014095;28;20030;-80
2023/06/23 02:36:19;;;;;;;15.13;6.60;;;27.30;53.20;;;;;;5014088;28;20038;-79
2023/06/23 02:38:47;;;;;;;11.90;6.85;;;27.40;53.60;;;;;;5014222;28;20037;-80
2023/06/23 02:41:15;;;;;;;14.45;7.13;;;27.30;53.10;;;;;;5014182;28;20112;-80
2023/06/23 02:43:50;;;;;;;13.15;7.15;;;27.30;53.50;;;;;;5014573;28;20064;-80
2023/06/23 02:46:18;;;;;;;11.05;7.15;;;27.20;54.10;;;;;;5013977;28;20076;-80
2023/06/23 02:48:48;;;;;;;12.77;7.45;;;27.10;54.00;;;;;;5013820;28;20038;-80
2023/06/23 02:51:20;;;;;;;13.07;7.28;;;27.10;54.30;;;;;;5013846;28;20029;-80
2023/06/23 02:53:51;;;;;;;15.55;7.60;;;27.10;54.20;;;;;;5013575;28;20057;-81
2023/06/23 02:56:23;;;;;;;15.32;10.23;;;27.10;54.50;;;;;;5014029;28;20451;-80
2023/06/23 02:58:51;;;;;;;16.50;9.27;;;27.00;54.70;;;;;;5013819;28;20037;-80
2023/06/23 03:01:22;;;;;;;23.25;13.93;;;27.00;54.90;;;;;;5017385;28;20087;-82
2023/06/23 03:03:49;;;;;;;21.23;12.73;;;27.00;54.40;;;;;;5029818;28;20034;-80
2023/06/23 03:06:22;;;;;;;29.77;17.38;;;27.00;55.10;;;;;;5019241;28;20069;-80
2023/06/23 03:08:49;;;;;;;20.65;13.70;;;27.00;55.20;;;;;;5013733;28;20129;-80
2023/06/23 03:11:19;;;;;;;20.15;14.50;;;27.00;55.30;;;;;;5012626;28;20041;-81
2023/06/23 03:13:45;;;;;;;26.38;14.25;;;27.00;55.30;;;;;;5013764;28;20163;-79
2023/06/23 03:16:22;;;;;;;21.30;14.90;;;27.10;55.10;;;;;;5013733;28;20042;-79
2023/06/23 03:18:55;;;;;;;30.55;13.45;;;27.10;55.30;;;;;;5014139;28;20119;-80
2023/06/23 03:21:23;;;;;;;21.00;11.40;;;27.00;55.30;;;;;;5013603;28;20106;-81
2023/06/23 03:23:51;;;;;;;15.93;10.63;;;27.00;55.60;;;;;;5013524;28;20026;-80
2023/06/23 03:26:20;;;;;;;14.95;9.05;;;27.00;55.70;;;;;;5013281;28;20030;-81
2023/06/23 03:28:48;;;;;;;15.02;8.77;;;27.00;55.90;;;;;;5013063;28;20069;-81
2023/06/23 03:31:17;;;;;;;15.00;8.32;;;27.00;56.00;;;;;;5012993;28;20044;-81
2023/06/23 03:33:44;;;;;;;15.38;8.05;;;27.00;55.70;;;;;;5013204;28;20104;-81
2023/06/23 03:36:21;;;;;;;16.00;7.40;;;27.00;55.50;;;;;;5013707;28;20034;-80
2023/06/23 03:38:59;;;;;;;14.43;7.00;;;27.00;55.20;;;;;;5015547;28;20045;-81
2023/06/23 03:41:29;;;;;;;12.40;7.13;;;26.90;55.60;;;;;;5013491;28;20034;-80
2023/06/23 03:43:59;;;;;;;10.60;7.10;;;26.90;55.20;;;;;;5012842;28;20049;-81
2023/06/23 03:46:49;;;;;;;11.73;7.10;;;26.90;55.30;;;;;;5013315;28;20419;-81
2023/06/23 03:49:16;;;;;;;12.10;6.68;;;26.90;55.40;;;;;;5012775;28;20049;-82
2023/06/23 03:51:46;;;;;;;11.50;6.90;;;26.80;54.00;;;;;;5012827;28;20041;-80
2023/06/23 03:54:15;;;;;;;12.05;6.72;;;26.80;54.20;;;;;;4994974;28;20127;-80
2023/06/23 03:56:43;;;;;;;12.82;6.30;;;26.80;54.00;;;;;;5012687;28;20092;-82
2023/06/23 03:59:11;;;;;;;12.25;6.68;;;26.90;54.40;;;;;;5013034;28;20093;-80
2023/06/23 04:01:40;;;;;;;12.02;6.05;;;26.80;53.80;;;;;;5013068;28;20397;-80
2023/06/23 04:04:08;;;;;;;12.13;5.60;;;26.90;53.20;;;;;;5013190;28;20055;-82
2023/06/23 04:06:35;;;;;;;9.82;5.75;;;27.00;53.10;;;;;;5012179;28;20480;-80
2023/06/23 04:09:02;;;;;;;9.82;5.88;;;27.00;52.60;;;;;;5012334;28;20045;-80
2023/06/23 04:11:30;;;;;;;8.80;5.60;;;27.00;52.20;;;;;;5012258;28;20556;-79
2023/06/23 04:13:57;;;;;;;14.27;5.57;;;27.00;52.10;;;;;;5012216;28;20165;-80
2023/06/23 04:16:24;;;;;;;10.02;5.75;;;27.00;52.10;;;;;;5012367;28;20176;-81
2023/06/23 04:18:52;;;;;;;9.35;5.00;;;27.00;51.60;;;;;;5013061;28;20456;-78
2023/06/23 04:21:18;;;;;;;8.90;5.75;;;27.00;51.70;;;;;;5013209;28;20030;-79
2023/06/23 04:23:45;;;;;;;10.88;6.70;;;27.10;51.50;;;;;;5012336;28;20037;-81
2023/06/23 04:26:13;;;;;;;13.00;5.50;;;27.10;51.40;;;;;;5012633;28;20033;-80
2023/06/23 04:28:42;;;;;;;9.27;5.50;;;27.00;51.40;;;;;;5015437;28;20042;-79
2023/06/23 04:31:10;;;;;;;8.55;5.30;;;27.00;51.40;;;;;;5015447;28;20033;-78
2023/06/23 04:33:37;;;;;;;14.23;5.72;;;27.10;51.30;;;;;;5012978;28;20089;-80
2023/06/23 04:36:16;;;;;;;11.90;5.22;;;27.00;51.30;;;;;;5014017;28;20029;-80
2023/06/23 04:38:52;;;;;;;12.90;5.80;;;27.00;51.70;;;;;;5012801;28;20042;-78
2023/06/23 04:41:21;;;;;;;15.68;5.20;;;26.90;51.80;;;;;;5012676;28;20040;-80
2023/06/23 04:43:51;;;;;;;10.75;5.75;;;27.00;51.90;;;;;;5012033;28;20443;-80
2023/06/23 04:46:26;;;;;;;11.38;5.22;;;27.10;51.60;;;;;;5012176;28;20034;-80
2023/06/23 04:48:59;;;;;;;10.15;5.55;;;27.20;51.70;;;;;;5012186;28;20495;-79
2023/06/23 04:51:29;;;;;;;12.30;5.78;;;27.30;51.60;;;;;;5014467;28;20081;-79
2023/06/23 04:54:01;;;;;;;10.00;5.75;;;27.40;51.50;;;;;;5014227;28;20041;-79
2023/06/23 04:56:33;;;;;;;12.07;5.25;;;27.40;51.90;;;;;;4996334;28;20422;-80
2023/06/23 04:59:02;;;;;;;11.18;6.03;;;27.50;51.40;;;;;;5011756;28;20070;-79
2023/06/23 05:01:31;;;;;;;9.65;5.50;;;27.50;52.20;;;;;;5012041;28;20507;-80
2023/06/23 05:04:00;;;;;;;9.25;5.38;;;27.50;52.40;;;;;;5011587;28;20045;-79
2023/06/23 05:06:28;;;;;;;13.38;5.65;;;27.50;52.10;;;;;;5011943;28;20026;-80
2023/06/23 05:08:57;;;;;;;9.23;5.13;;;27.60;52.30;;;;;;5016797;28;20065;-78
2023/06/23 05:11:23;;;;;;;10.57;5.43;;;27.70;52.50;;;;;;5023390;28;20042;-79
2023/06/23 05:13:51;;;;;;;8.38;5.35;;;27.70;52.40;;;;;;5019509;28;20092;-79
2023/06/23 05:16:18;;;;;;;12.05;6.03;;;27.80;52.60;;;;;;5012192;28;20029;-80
2023/06/23 05:18:46;;;;;;;12.50;5.50;;;27.90;52.30;;;;;;5012130;28;20053;-79
2023/06/23 05:21:18;;;;;;;9.85;5.30;;;28.00;52.80;;;;;;5011928;28;20506;-79
2023/06/23 05:23:45;;;;;;;9.73;5.10;;;28.10;52.30;;;;;;5011756;28;20045;-79
2023/06/23 05:26:14;;;;;;;9.45;5.03;;;28.40;52.00;;;;;;5011587;28;20074;-78
2023/06/23 05:28:41;;;;;;;11.60;5.25;;;28.70;51.30;;;;;;5011396;28;20042;-78
2023/06/23 05:31:08;;;;;;;11.60;5.63;;;29.00;51.40;;;;;;5011767;28;20201;-78
2023/06/23 05:33:37;;;;;;;17.80;9.45;;;29.20;51.00;;;;;;5012406;28;20522;-80
2023/06/23 05:36:07;;;;;;;18.92;9.32;;;29.20;51.00;;;;;;4997175;28;20356;-79
2023/06/23 05:38:36;;;;;;;11.48;5.55;;;29.40;50.70;;;;;;5015019;28;20038;-75
2023/06/23 05:41:02;;;;;;;12.73;5.32;;;29.60;50.30;;;;;;5015249;28;20091;-77
2023/06/23 05:43:27;;;;;;;15.23;7.00;;;29.80;49.80;;;;;;5015239;28;20129;-74
2023/06/23 05:45:56;;;;;;;10.00;5.80;;;30.10;49.80;;;;;;5001655;28;20044;-77
2023/06/23 05:48:36;;;;;;;10.85;5.72;;;30.30;49.30;;;;;;5034393;28;20175;-80
2023/06/23 05:51:07;;;;;;;13.40;5.40;;;30.50;47.80;;;;;;5034313;28;20038;-75
2023/06/23 05:53:36;;;;;;;18.90;5.82;;;30.70;48.60;;;;;;5026054;28;20452;-74
2023/06/23 05:56:08;;;;;;;12.45;5.18;;;30.90;48.20;;;;;;5014416;28;20034;-73
2023/06/23 05:58:38;;;;;;;14.98;5.53;;;31.00;47.70;;;;;;5014396;28;20042;-73
2023/06/23 06:01:12;;;;;;;11.70;4.90;;;30.80;47.70;;;;;;5014156;28;20033;-76
2023/06/23 06:03:46;;;;;;;12.80;4.80;;;30.60;47.80;;;;;;4994292;28;20077;-75
2023/06/23 06:06:12;;;;;;;13.30;5.53;;;30.60;47.70;;;;;;4994665;28;20038;-73
2023/06/23 06:08:40;;;;;;;14.13;5.45;;;30.50;47.80;;;;;;4994575;28;20034;-75
2023/06/23 06:11:07;;;;;;;14.77;5.63;;;30.30;48.40;;;;;;4994437;28;20074;-75
2023/06/23 06:13:40;;;;;;;14.60;5.55;;;30.20;48.60;;;;;;4994150;28;20065;-75
2023/06/23 06:16:07;;;;;;;;;;;30.10;48.60;;;;;;4994667;28;20045;-74
2023/06/23 06:18:36;;;;;;;10.98;5.15;;;29.90;48.40;;;;;;4994535;28;19910;-75
2023/06/23 06:21:04;;;;;;;10.45;5.38;;;29.80;48.90;;;;;;4994391;28;20061;-75
2023/06/23 06:23:31;;;;;;;13.40;5.97;;;29.60;48.80;;;;;;4994052;28;20381;-75
2023/06/23 06:25:59;;;;;;;12.00;5.78;;;29.50;49.40;;;;;;4994474;28;20034;-77
2023/06/23 06:28:27;;;;;;;10.25;5.20;;;29.40;49.90;;;;;;4994218;28;20106;-75
2023/06/23 06:30:56;;;;;;;15.85;5.97;;;29.30;50.10;;;;;;4994334;28;20508;-75
2023/06/23 06:33:23;;;;;;;14.80;5.72;;;29.30;50.30;;;;;;4994482;28;20031;-75
2023/06/23 06:35:51;;;;;;;13.80;5.65;;;29.20;50.80;;;;;;4994709;28;20092;-74
2023/06/23 06:38:19;;;;;;;12.95;5.75;;;29.00;51.20;;;;;;4977220;28;20042;-74
2023/06/23 06:40:50;;;;;;;13.85;5.40;;;29.00;51.40;;;;;;4994329;28;20041;-75
2023/06/23 06:43:16;;;;;;;11.38;5.80;;;29.00;51.70;;;;;;4994420;28;20443;-74
2023/06/23 06:45:42;;;;;;;14.98;6.03;;;29.20;51.50;;;;;;4993945;28;20486;-74
2023/06/23 06:48:09;;;;;;;11.95;5.47;;;29.50;51.70;;;;;;4994162;28;20046;-74
2023/06/23 06:50:36;;;;;;;13.10;5.60;;;29.60;51.50;;;;;;4993842;28;20039;-73
2023/06/23 06:53:03;;;;;;;14.25;5.43;;;29.90;51.30;;;;;;4989746;28;20034;-75
2023/06/23 06:55:31;;;;;;;14.25;6.00;;;30.00;51.00;;;;;;5013726;28;20041;-79
2023/06/23 06:57:57;;;;;;;11.35;5.28;;;30.20;51.20;;;;;;5013613;28;20037;-77
2023/06/23 07:00:23;;;;;;;14.93;6.00;;;30.40;51.10;;;;;;5013610;28;20034;-79
2023/06/23 07:02:50;;;;;;;16.35;6.28;;;30.60;50.70;;;;;;5013566;28;20030;-79
2023/06/23 07:05:20;;;;;;;10.27;5.22;;;30.90;50.70;;;;;;5013850;28;20033;-79
2023/06/23 07:07:46;;;;;;;12.25;5.60;;;31.10;50.00;;;;;;5013904;28;20041;-77
2023/06/23 07:10:12;;;;;;;12.05;5.55;;;31.30;50.20;;;;;;5013628;28;20046;-81
2023/06/23 07:12:37;;;;;;;16.80;6.25;;;31.50;50.50;;;;;;5014066;28;20340;-83
2023/06/23 07:15:03;;;;;;;14.75;6.32;;;31.60;50.70;;;;;;5014135;28;20042;-81
2023/06/23 07:17:29;;;;;;;12.73;5.43;;;31.80;50.60;;;;;;5025092;28;20121;-81
2023/06/23 07:19:55;;;;;;;12.35;5.05;;;31.90;51.40;;;;;;5024824;28;20044;-75
2023/06/23 07:22:20;;;;;;;10.77;5.70;;;31.90;51.70;;;;;;5014296;28;20049;-80
2023/06/23 07:24:46;;;;;;;10.10;5.18;;;31.80;52.40;;;;;;5013572;28;20037;-77
2023/06/23 07:27:14;;;;;;;13.68;5.28;;;31.60;53.00;;;;;;5013381;28;20030;-77
2023/06/23 07:29:40;;;;;;;11.45;4.65;;;31.70;53.30;;;;;;5013313;28;20041;-78
2023/06/23 07:32:07;;;;;;;9.00;5.32;;;31.80;53.30;;;;;;5013294;28;20057;-78
2023/06/23 07:34:34;;;;;;;9.93;4.70;;;31.90;53.00;;;;;;5013267;28;20030;-78
2023/06/23 07:37:00;;;;;;;9.82;4.97;;;31.90;53.40;;;;;;5013121;28;20136;-79
2023/06/23 07:39:25;;;;;;;11.13;5.18;;;32.00;53.50;;;;;;5013106;28;20100;-78
2023/06/23 07:41:51;;;;;;;9.50;4.55;;;32.10;53.60;;;;;;4995316;28;20066;-79
2023/06/23 07:44:17;;;;;;;11.93;5.75;;;32.00;54.30;;;;;;5013147;28;20056;-79
2023/06/23 07:46:43;;;;;;;13.40;5.63;;;31.90;54.00;;;;;;5012990;28;20026;-78
2023/06/23 07:49:09;;;;;;;30.48;9.75;;;31.90;54.70;;;;;;5014806;28;20034;-82
2023/06/23 07:51:34;;;;;;;14.63;5.50;;;31.90;54.40;;;;;;5013509;28;20048;-79
2023/06/23 07:54:00;;;;;;;19.70;7.03;;;31.90;55.10;;;;;;5013348;28;20061;-78
2023/06/23 07:56:26;;;;;;;19.15;7.20;;;31.80;55.30;;;;;;5012846;28;20380;-79
2023/06/23 07:58:51;;;;;;;21.08;7.50;;;31.70;55.30;;;;;;5013077;28;20080;-80
2023/06/23 08:01:17;;;;;;;11.57;5.40;;;31.70;55.80;;;;;;5012757;28;20037;-79
2023/06/23 08:03:46;;;;;;;14.50;5.10;;;31.60;56.20;;;;;;5012892;28;20117;-78
2023/06/23 08:06:12;;;;;;;12.18;5.85;;;31.70;56.60;;;;;;5012427;28;20026;-80
2023/06/23 08:08:38;;;;;;;12.77;5.95;;;31.80;56.50;;;;;;5012286;28;20399;-79
2023/06/23 08:11:04;;;;;;;19.33;6.88;;;31.80;56.50;;;;;;5012205;28;20053;-80
2023/06/23 08:13:30;;;;;;;14.15;5.65;;;31.80;56.30;;;;;;5012618;28;20030;-79
2023/06/23 08:15:56;;;;;;;10.40;5.50;;;31.80;56.50;;;;;;5012236;28;20443;-77
2023/06/23 08:18:21;;;;;;;16.98;5.40;;;31.80;56.80;;;;;;4994804;28;20037;-77
2023/06/23 08:20:47;;;;;;;15.00;6.10;;;31.80;57.40;;;;;;5012236;28;20080;-78
2023/06/23 08:23:13;;;;;;;11.82;5.50;;;31.60;57.30;;;;;;5012465;28;20034;-79
2023/06/23 08:25:38;;;;;;;14.63;5.70;;;31.60;57.90;;;;;;5012610;28;20061;-80
2023/06/23 08:28:04;;;;;;;17.15;6.82;;;31.50;58.50;;;;;;5012399;28;20038;-80
2023/06/23 08:30:31;;;;;;;22.13;6.78;;;31.40;58.90;;;;;;5012096;28;20092;-78
2023/06/23 08:32:57;;;;;;;19.35;7.03;;;31.30;59.40;;;;;;4994711;28;20037;-79
2023/06/23 08:35:23;;;;;;;18.27;6.95;;;31.10;59.10;;;;;;5012310;28;20025;-79
2023/06/23 08:37:49;;;;;;;20.23;6.40;;;31.10;59.40;;;;;;5012621;28;20408;-78
2023/06/23 08:40:15;;;;;;;21.77;7.75;;;31.00;59.50;;;;;;5012496;28;20049;-79
2023/06/23 08:42:41;;;;;;;19.63;7.63;;;31.00;59.90;;;;;;5012623;28;20038;-78
2023/06/23 08:45:08;;;;;;;19.45;7.28;;;30.90;60.10;;;;;;5012013;28;20057;-78
2023/06/23 08:47:39;;;;;;;21.95;7.60;;;30.80;59.60;;;;;;5012614;28;20057;-79
2023/06/23 08:50:08;;;;;;;21.10;7.28;;;30.70;60.30;;;;;;5012429;28;20511;-79
2023/06/23 08:52:35;;;;;;;24.05;7.85;;;30.70;60.30;;;;;;5012571;28;20030;-77
2023/06/23 08:55:02;;;;;;;14.40;6.15;;;30.70;60.40;;;;;;5012058;28;20058;-77
2023/06/23 08:57:28;;;;;;;22.17;7.47;;;30.70;59.50;;;;;;5011847;28;20048;-77
2023/06/23 08:59:55;;;;;;;29.33;7.90;;;30.60;60.10;;;;;;5011740;28;20061;-75
2023/06/23 09:02:21;;;;;;;22.00;7.45;;;30.60;59.70;;;;;;5011608;28;20503;-79
2023/06/23 09:04:48;;;;;;;18.17;7.47;;;30.50;60.00;;;;;;5011676;28;20038;-72
2023/06/23 09:07:14;;;;;;;21.58;8.05;;;30.40;60.40;;;;;;5012919;28;20030;-78
2023/06/23 09:09:41;;;;;;;23.38;7.47;;;30.40;60.40;;;;;;5018249;28;20045;-79
2023/06/23 09:12:08;;;;;;;24.08;7.50;;;30.40;60.70;;;;;;5015818;28;20092;-79
2023/06/23 09:14:34;;;;;;;17.05;7.38;;;30.50;60.50;;;;;;5015826;28;20030;-79
2023/06/23 09:17:01;;;;;;;21.13;7.80;;;30.40;59.70;;;;;;5015654;28;20026;-78
2023/06/23 09:19:27;;;;;;;22.90;7.68;;;30.40;60.00;;;;;;5015574;28;20071;-79
2023/06/23 09:21:55;;;;;;;27.27;7.40;;;30.40;60.40;;;;;;5015769;28;20092;-80
2023/06/23 09:24:21;;;;;;;19.65;7.45;;;30.40;59.50;;;;;;5015576;28;20435;-80
2023/06/23 09:26:56;;;;;;;23.95;7.63;;;30.40;59.50;;;;;;5016519;28;20038;-81
2023/06/23 09:29:28;;;;;;;17.50;7.47;;;30.40;60.00;;;;;;5016927;28;20168;-80
2023/06/23 09:31:55;;;;;;;18.27;7.57;;;30.50;59.60;;;;;;4998916;28;20440;-82
2023/06/23 09:34:30;;;;;;;20.35;7.40;;;30.50;59.00;;;;;;5017696;28;20077;-82
2023/06/23 09:37:33;;;;;;;20.77;7.60;;;30.60;58.50;;;;;;5032494;28;20097;-82
2023/06/23 09:39:59;;;;;;;22.08;7.93;;;30.60;59.30;;;;;;5015511;28;20034;-82
2023/06/23 09:42:24;;;;;;;22.75;7.88;;;30.60;59.60;;;;;;5020271;28;20061;-81
2023/06/23 09:44:50;;;;;;;19.92;7.15;;;30.60;59.60;;;;;;5017043;28;20050;-83
2023/06/23 09:47:18;;;;;;;20.40;7.45;;;30.50;59.70;;;;;;5015801;28;20034;-82
2023/06/23 09:49:46;;;;;;;20.05;7.78;;;30.50;59.60;;;;;;5016170;28;20511;-81
2023/06/23 09:52:26;;;;;;;24.88;7.78;;;30.50;59.20;;;;;;5016030;28;20029;-81
2023/06/23 09:54:52;;;;;;;17.00;7.93;;;30.60;59.60;;;;;;5016043;28;20045;-82
2023/06/23 09:57:19;;;;;;;22.95;7.20;;;30.60;58.60;;;;;;4998150;28;20041;-81
2023/06/23 09:59:48;;;;;;;16.83;6.57;;;30.60;58.90;;;;;;5024190;28;20042;-80
2023/06/23 10:02:20;;;;;;;16.05;6.82;;;30.50;58.40;;;;;;5015454;28;20381;-81
2023/06/23 10:04:48;;;;;;;17.90;7.13;;;30.60;59.20;;;;;;5015263;28;20109;-78
2023/06/23 10:07:22;;;;;;;16.80;7.20;;;30.60;58.90;;;;;;5016111;28;20357;-81
2023/06/23 10:09:51;;;;;;;16.58;6.70;;;30.60;58.80;;;;;;5016837;28;20046;-81
2023/06/23 10:12:22;;;;;;;18.00;6.97;;;30.60;58.10;;;;;;5015298;28;20034;-81
2023/06/23 10:14:49;;;;;;;18.90;6.95;;;30.60;57.30;;;;;;5015467;28;20034;-82
2023/06/23 10:17:15;;;;;;;19.50;7.28;;;30.70;57.60;;;;;;5014591;28;20446;-82
2023/06/23 10:19:42;;;;;;;20.77;7.38;;;30.70;58.10;;;;;;5014055;28;20385;-80
2023/06/23 10:22:10;;;;;;;15.68;6.68;;;30.70;58.30;;;;;;5014712;28;20079;-82
2023/06/23 10:24:36;;;;;;;18.38;7.25;;;30.80;58.70;;;;;;4997176;28;20033;-80
2023/06/23 10:27:05;;;;;;;21.38;7.35;;;30.90;58.50;;;;;;5015284;28;20085;-81
2023/06/23 10:29:34;;;;;;;19.38;7.10;;;30.90;59.10;;;;;;5017022;28;20046;-79
2023/06/23 17:22:45;;;;;;;19.38;6.70;;;29.80;63.90;;;;;;5023007;28;20053;-80
2023/06/23 17:25:12;;;;;;;20.67;7.45;;;29.80;64.00;;;;;;5029034;28;20392;-79
2023/06/23 17:27:39;;;;;;;24.23;7.43;;;29.80;64.10;;;;;;5029326;28;20403;-80
2023/06/23 17:30:07;;;;;;;20.90;7.03;;;29.80;64.50;;;;;;5021801;28;20049;-82
2023/06/23 17:32:33;;;;;;;20.17;6.97;;;29.80;64.60;;;;;;5033274;28;20064;-80
2023/06/23 17:34:59;;;;;;;19.30;7.28;;;29.70;65.00;;;;;;5031449;28;20033;-81
2023/06/23 17:37:25;;;;;;;14.95;6.20;;;29.70;65.20;;;;;;5030798;28;20439;-80
2023/06/23 17:39:50;;;;;;;23.08;7.53;;;29.60;65.10;;;;;;5030340;28;20499;-80
2023/06/23 17:42:16;;;;;;;23.55;7.97;;;29.60;65.90;;;;;;5022936;28;20116;-80
2023/06/23 17:44:42;;;;;;;19.73;7.15;;;29.50;66.10;;;;;;5024468;28;20041;-79
2023/06/23 17:47:07;;;;;;;21.63;6.97;;;29.50;66.50;;;;;;5028405;28;20065;-80
2023/06/23 17:49:34;;;;;;;22.25;7.50;;;29.50;66.70;;;;;;5025953;28;20037;-80
2023/06/23 17:51:59;;;;;;;18.88;6.70;;;29.40;67.10;;;;;;5028076;28;20038;-81
2023/06/23 17:54:25;;;;;;;22.88;7.60;;;29.40;66.90;;;;;;5007729;28;20077;-80
2023/06/23 17:56:51;;;;;;;17.38;6.80;;;29.30;67.10;;;;;;5034153;28;20041;-80
2023/06/23 17:59:16;;;;;;;16.10;6.53;;;29.30;67.00;;;;;;5034020;28;20033;-80
2023/06/23 18:01:42;;;;;;;29.10;12.48;;;29.30;67.20;;;;;;5031713;28;20038;-80
2023/06/23 18:04:08;;;;;;;23.55;13.68;;;29.30;67.00;;;;;;5030488;28;20069;-81
2023/06/23 18:06:34;;;;;;;20.77;6.88;;;29.30;67.40;;;;;;5027898;28;20121;-77
2023/06/23 18:09:00;;;;;;;24.50;7.75;;;29.30;67.60;;;;;;5017881;28;20488;-81
2023/06/23 18:11:26;;;;;;;29.55;8.05;;;29.30;67.80;;;;;;5014764;28;20040;-77
2023/06/23 18:13:51;;;;;;;23.08;7.45;;;29.20;68.00;;;;;;5014746;28;20450;-78
2023/06/23 18:16:18;;;;;;;22.90;8.20;;;29.20;68.00;;;;;;5014617;28;20137;-75
2023/06/23 18:18:44;;;;;;;25.45;8.30;;;29.30;68.40;;;;;;5014166;28;20451;-76
2023/06/23 18:21:09;;;;;;;26.75;8.13;;;29.20;68.70;;;;;;5013768;28;20066;-76
2023/06/23 18:23:35;;;;;;;27.25;8.73;;;29.10;68.30;;;;;;5013872;28;20349;-77
2023/06/23 18:26:01;;;;;;;22.70;7.95;;;29.10;68.80;;;;;;4996972;28;20038;-81
2023/06/23 18:28:26;;;;;;;29.27;8.25;;;29.00;69.00;;;;;;5014252;28;20030;-74
2023/06/23 18:30:52;;;;;;;20.98;7.82;;;29.00;69.20;;;;;;5014247;28;20046;-79
2023/06/23 18:33:18;;;;;;;20.75;7.68;;;29.00;69.40;;;;;;5014464;28;20153;-73
2023/06/23 18:35:43;;;;;;;25.38;8.02;;;29.00;69.70;;;;;;5013372;28;20034;-74
2023/06/23 18:38:09;;;;;;;21.95;8.02;;;29.00;69.60;;;;;;5013231;28;20033;-77
2023/06/23 18:40:35;;;;;;;27.92;8.48;;;28.90;70.00;;;;;;4995623;28;20044;-74
2023/06/23 18:43:02;;;;;;;23.58;8.25;;;28.90;70.10;;;;;;5012956;28;20037;-74
2023/06/23 18:45:28;;;;;;;22.17;8.02;;;28.80;69.90;;;;;;5013616;28;20380;-74
2023/06/23 18:47:53;;;;;;;24.52;8.18;;;28.90;70.10;;;;;;5013563;28;20041;-74
2023/06/23 18:50:19;;;;;;;26.33;8.15;;;28.80;70.90;;;;;;5013280;28;20050;-74
2023/06/23 18:52:45;;;;;;;24.65;8.52;;;28.80;70.80;;;;;;5012832;28;20058;-75
2023/06/23 18:55:10;;;;;;;25.33;8.07;;;28.80;70.60;;;;;;5013456;28;20184;-75
2023/06/23 18:57:36;;;;;;;23.83;8.75;;;28.80;70.90;;;;;;5013183;28;20040;-75
2023/06/23 19:00:05;;;;;;;22.52;7.95;;;28.80;71.10;;;;;;5013301;28;20053;-74
2023/06/23 19:02:31;;;;;;;22.92;8.50;;;28.70;71.00;;;;;;5013252;28;20045;-72
2023/06/23 19:04:56;;;;;;;21.17;8.60;;;28.70;71.20;;;;;;5013226;28;20034;-72
2023/06/23 19:07:22;;;;;;;24.40;8.40;;;28.60;71.50;;;;;;5013065;28;20498;-73
2023/06/23 19:09:48;;;;;;;25.48;9.10;;;28.60;71.80;;;;;;4979053;28;20100;-76
2023/06/23 19:12:13;;;;;;;22.30;8.27;;;28.60;71.90;;;;;;5013787;28;20050;-74
2023/06/23 19:14:39;;;;;;;25.80;8.70;;;28.60;71.80;;;;;;5013157;28;20547;-73
2023/06/23 19:17:12;;;;;;;25.73;8.57;;;28.60;71.70;;;;;;5013018;28;20030;-74
2023/06/23 19:19:40;;;;;;;25.80;8.43;;;28.60;72.20;;;;;;5013285;28;20049;-73
2023/06/23 19:22:06;;;;;;;22.13;7.97;;;28.50;72.40;;;;;;5012736;28;20108;-70
2023/06/23 19:24:35;;;;;;;25.80;8.75;;;28.50;72.70;;;;;;5013025;28;20026;-77
2023/06/23 19:27:01;;;;;;;26.02;8.40;;;28.40;72.90;;;;;;5020115;28;20034;-78
2023/06/23 19:29:27;;;;;;;28.92;8.23;;;28.40;73.10;;;;;;5003333;28;20119;-73
2023/06/23 19:31:53;;;;;;;22.25;8.10;;;28.40;73.10;;;;;;5032680;28;20077;-75
2023/06/23 19:34:18;;;;;;;34.70;8.93;;;28.40;73.60;;;;;;5015226;28;20037;-72